Time;durP1;ratioP1;P1;durP2;ratioP2;P2;SDS_P1;SDS_P2;PMS_P1;PMS_P2;Temp;Humidity;BMP_temperature;BMP_pressure;BME280_temperature;BME280_humidity;BME280_pressure;Samples;Min_cycle;Max_cycle;Signal;HPM_P1;HPM_P2
2022/07/22 00:01:41;;;;;;;7.25;4.05;;;25.80;90.40;;;;;;5035438;28;20087;-51
2022/07/22 00:04:07;;;;;;;10.75;4.47;;;25.80;90.60;;;;;;5051805;28;20033;-50
2022/07/22 00:06:33;;;;;;;8.65;4.60;;;25.70;90.60;;;;;;5018153;28;20098;-49
2022/07/22 00:08:59;;;;;;;8.68;3.90;;;25.70;90.90;;;;;;5040507;28;20215;-51
2022/07/22 00:11:25;;;;;;;5.65;4.32;;;25.70;91.00;;;;;;5036794;28;20028;-51
2022/07/22 00:13:51;;;;;;;12.50;7.75;;;25.60;91.20;;;;;;5036922;28;20037;-48
2022/07/22 00:16:16;;;;;;;13.80;9.60;;;25.50;91.40;;;;;;5036345;28;20033;-48
2022/07/22 00:18:42;;;;;;;10.07;5.03;;;25.40;91.70;;;;;;5046044;28;20120;-50
2022/07/22 00:21:08;;;;;;;7.53;3.55;;;;;;;;;;5038136;28;20025;-49
2022/07/22 00:23:34;;;;;;;9.82;3.88;;;25.30;91.40;;;;;;5037966;28;20032;-52
2022/07/22 00:26:00;;;;;;;10.32;4.00;;;25.20;91.80;;;;;;5033390;28;20389;-50
2022/07/22 00:28:26;;;;;;;8.95;4.15;;;25.10;91.80;;;;;;5022067;28;20053;-49
2022/07/22 00:30:52;;;;;;;8.00;4.13;;;25.10;91.90;;;;;;5038581;28;20040;-51
2022/07/22 00:33:18;;;;;;;5.63;4.35;;;25.00;92.20;;;;;;5044069;28;20068;-49
2022/07/22 00:35:44;;;;;;;10.10;4.47;;;24.90;92.60;;;;;;5033273;28;20527;-48
2022/07/22 00:38:10;;;;;;;8.63;4.20;;;24.90;92.70;;;;;;5023872;28;20040;-48
2022/07/22 00:40:36;;;;;;;9.57;4.38;;;24.80;92.90;;;;;;5040114;28;20025;-49
2022/07/22 00:43:01;;;;;;;8.88;4.85;;;24.80;92.90;;;;;;5043141;28;20427;-50
2022/07/22 00:45:27;;;;;;;9.15;4.35;;;24.80;92.90;;;;;;5031719;28;20117;-50
2022/07/22 00:47:53;;;;;;;5.00;3.88;;;24.70;93.20;;;;;;5041362;28;20032;-50
2022/07/22 00:50:20;;;;;;;6.50;3.92;;;24.70;93.30;;;;;;5038404;28;20030;-52
2022/07/22 00:52:47;;;;;;;6.38;4.47;;;24.60;93.40;;;;;;5025637;28;20072;-51
2022/07/22 00:55:14;;;;;;;6.57;4.00;;;24.50;93.50;;;;;;5051136;28;20033;-51
2022/07/22 00:57:40;;;;;;;6.78;4.20;;;24.50;93.60;;;;;;5036481;28;20495;-48
2022/07/22 01:00:09;;;;;;;8.45;4.50;;;24.40;93.90;;;;;;5035039;28;20033;-50
2022/07/22 01:02:35;;;;;;;10.80;4.50;;;;;;;;;;5037333;28;20056;-47
2022/07/22 01:05:01;;;;;;;8.18;4.15;;;24.50;93.80;;;;;;5038560;28;20050;-50
2022/07/22 01:07:27;;;;;;;8.48;4.47;;;24.50;94.00;;;;;;5035323;28;20079;-49
2022/07/22 01:09:53;;;;;;;13.77;4.35;;;24.50;94.00;;;;;;5039206;28;20120;-49
2022/07/22 01:12:19;;;;;;;9.93;4.88;;;24.50;94.20;;;;;;5040515;28;20440;-50
2022/07/22 01:14:45;;;;;;;12.30;4.45;;;24.40;94.30;;;;;;5036058;28;20030;-50
2022/07/22 01:17:11;;;;;;;10.07;4.35;;;;;;;;;;5038536;28;20461;-48
2022/07/22 01:19:37;;;;;;;9.85;4.70;;;24.20;94.70;;;;;;5038655;28;20043;-49
2022/07/22 01:22:04;;;;;;;13.15;5.40;;;;;;;;;;5035030;28;21464;-48
2022/07/22 01:24:30;;;;;;;9.02;5.10;;;;;;;;;;5038957;28;20469;-48
2022/07/22 01:26:56;;;;;;;11.85;4.47;;;24.00;99.90;;;;;;5026314;28;20041;-50
2022/07/22 01:29:21;;;;;;;9.75;4.60;;;23.90;96.40;;;;;;5017930;28;20060;-48
2022/07/22 01:31:47;;;;;;;8.23;4.60;;;23.90;96.80;;;;;;5013758;28;20094;-49
2022/07/22 01:34:13;;;;;;;9.75;4.93;;;23.90;97.10;;;;;;5047989;28;20069;-50
2022/07/22 01:36:39;;;;;;;9.35;4.57;;;23.80;97.70;;;;;;5037532;28;20497;-48
2022/07/22 01:39:05;;;;;;;7.40;4.72;;;23.80;97.60;;;;;;5035067;28;20033;-49
2022/07/22 01:41:31;;;;;;;11.45;5.05;;;23.90;97.60;;;;;;5033674;28;20567;-48
2022/07/22 01:43:57;;;;;;;7.65;4.68;;;23.90;97.60;;;;;;5039600;28;20435;-48
2022/07/22 01:46:23;;;;;;;11.02;5.32;;;24.00;97.80;;;;;;5043906;28;20034;-50
2022/07/22 01:48:51;;;;;;;10.80;4.97;;;23.80;98.00;;;;;;5042602;28;20021;-51
2022/07/22 01:51:16;;;;;;;10.68;4.65;;;24.00;98.00;;;;;;5065544;28;20495;-47
2022/07/22 01:53:42;;;;;;;13.25;4.80;;;23.90;98.10;;;;;;5072091;28;20048;-50
2022/07/22 01:56:08;;;;;;;9.40;4.85;;;24.10;98.10;;;;;;5040064;28;20638;-49
2022/07/22 01:58:34;;;;;;;7.40;4.53;;;24.10;97.80;;;;;;5049205;28;20071;-51
2022/07/22 02:01:00;;;;;;;13.63;5.22;;;24.00;97.80;;;;;;5073033;28;20554;-48
2022/07/22 02:03:26;;;;;;;11.85;4.90;;;24.00;98.00;;;;;;5075198;28;20225;-48
2022/07/22 02:05:52;;;;;;;9.40;4.85;;;24.00;98.10;;;;;;5068259;28;20393;-48
2022/07/22 02:08:17;;;;;;;7.80;5.10;;;24.00;98.10;;;;;;5071502;28;20064;-51
2022/07/22 02:10:44;;;;;;;10.98;5.43;;;24.10;98.30;;;;;;5040590;28;20056;-51
2022/07/22 02:13:10;;;;;;;5.65;4.60;;;24.10;98.30;;;;;;5070684;28;20036;-50
2022/07/22 02:15:36;;;;;;;8.75;5.28;;;24.10;98.20;;;;;;5063748;28;20032;-49
2022/07/22 02:18:16;;;;;;;8.93;4.95;;;24.10;98.20;;;;;;5067746;28;20037;-51
2022/07/22 02:20:42;;;;;;;11.50;5.32;;;24.10;98.20;;;;;;5077731;28;20021;-48
2022/07/22 02:23:11;;;;;;;10.77;5.40;;;24.10;98.30;;;;;;5041770;28;20052;-50
2022/07/22 02:25:37;;;;;;;9.38;4.90;;;24.10;98.30;;;;;;5043705;28;20396;-51
2022/07/22 02:28:03;;;;;;;11.00;5.20;;;24.10;98.10;;;;;;5039445;28;20045;-51
2022/07/22 02:30:30;;;;;;;13.50;5.22;;;24.10;98.00;;;;;;5035099;28;20563;-51
2022/07/22 02:32:57;;;;;;;7.35;4.93;;;24.00;98.10;;;;;;5050536;28;20421;-49
2022/07/22 02:35:23;;;;;;;10.07;5.15;;;24.00;98.20;;;;;;5061891;28;20029;-50
2022/07/22 02:37:49;;;;;;;11.68;4.97;;;24.00;98.20;;;;;;5035730;28;20033;-48
2022/07/22 02:40:15;;;;;;;11.93;5.22;;;24.10;98.00;;;;;;5050618;28;20392;-50
2022/07/22 02:42:40;;;;;;;13.68;5.32;;;24.00;98.20;;;;;;5042113;28;20073;-51
2022/07/22 02:45:07;;;;;;;9.88;4.93;;;24.00;98.00;;;;;;5017851;28;20029;-48
2022/07/22 02:47:33;;;;;;;7.28;4.68;;;24.00;97.70;;;;;;5034977;28;20040;-48
2022/07/22 02:49:59;;;;;;;10.45;5.47;;;24.00;97.60;;;;;;5042761;28;20033;-51
2022/07/22 02:52:25;;;;;;;11.20;4.90;;;24.00;97.60;;;;;;5062383;28;20046;-52
2022/07/22 02:54:51;;;;;;;7.93;4.60;;;24.00;97.50;;;;;;5040324;28;20132;-51
2022/07/22 02:57:17;;;;;;;9.88;4.50;;;24.00;97.50;;;;;;5038219;28;20029;-51
2022/07/22 02:59:43;;;;;;;11.73;4.82;;;24.00;97.40;;;;;;5033550;28;20030;-49
2022/07/22 03:02:08;;;;;;;11.50;4.68;;;24.10;97.50;;;;;;5048997;28;20045;-48
2022/07/22 03:04:34;;;;;;;9.02;4.35;;;24.10;97.20;;;;;;5043899;28;20037;-48
2022/07/22 03:07:00;;;;;;;12.75;5.05;;;24.10;96.90;;;;;;5039656;28;20031;-50
2022/07/22 03:09:26;;;;;;;8.57;4.72;;;24.10;96.90;;;;;;5054545;28;20106;-49
2022/07/22 03:11:52;;;;;;;8.65;4.53;;;24.10;96.60;;;;;;5036421;28;20042;-50
2022/07/22 03:14:18;;;;;;;10.00;4.72;;;23.90;96.70;;;;;;5032014;28;20045;-48
2022/07/22 03:16:44;;;;;;;12.68;5.97;;;23.90;96.90;;;;;;5038699;28;20079;-50
2022/07/22 03:19:10;;;;;;;10.80;4.80;;;23.90;97.00;;;;;;5036755;28;20056;-51
2022/07/22 03:21:36;;;;;;;10.50;4.22;;;23.80;97.30;;;;;;5050939;28;20172;-48
2022/07/22 03:24:02;;;;;;;27.98;6.43;;;23.80;97.30;;;;;;5000002;28;20038;-48
2022/07/22 03:26:27;;;;;;;12.75;5.40;;;23.80;97.30;;;;;;5010352;28;20036;-48
2022/07/22 03:28:53;;;;;;;10.15;4.50;;;23.70;97.30;;;;;;4996659;28;20095;-50
2022/07/22 03:31:19;;;;;;;7.80;4.85;;;23.70;97.30;;;;;;5012497;28;20087;-50
2022/07/22 03:33:45;;;;;;;10.80;5.10;;;23.60;97.40;;;;;;5012521;28;20132;-51
2022/07/22 03:36:11;;;;;;;14.30;5.82;;;23.70;97.70;;;;;;5004695;28;20049;-50
2022/07/22 03:38:37;;;;;;;11.70;4.97;;;23.80;97.50;;;;;;5010411;28;20521;-48
2022/07/22 03:41:03;;;;;;;12.60;5.10;;;24.00;97.50;;;;;;5014138;28;20034;-51
2022/07/22 03:43:30;;;;;;;11.10;5.00;;;23.90;97.50;;;;;;4983239;28;20135;-51
2022/07/22 03:45:56;;;;;;;13.88;5.28;;;24.00;97.40;;;;;;5010931;28;20041;-50
2022/07/22 03:48:22;;;;;;;16.00;6.50;;;24.10;97.70;;;;;;5010547;28;20059;-49
2022/07/22 03:50:49;;;;;;;13.32;5.18;;;24.10;97.40;;;;;;5010319;28;20506;-48
2022/07/22 03:53:16;;;;;;;9.13;4.90;;;24.00;97.40;;;;;;4987353;28;20050;-50
2022/07/22 03:55:43;;;;;;;7.50;5.07;;;24.10;97.80;;;;;;5010034;28;20038;-50
2022/07/22 03:58:08;;;;;;;18.40;5.45;;;23.90;97.60;;;;;;4973767;28;20132;-51
2022/07/22 04:00:34;;;;;;;12.10;5.05;;;24.10;97.30;;;;;;4987570;28;20117;-50
2022/07/22 04:03:00;;;;;;;10.57;5.28;;;24.20;97.30;;;;;;5069417;28;20048;-51
2022/07/22 04:05:26;;;;;;;12.73;4.75;;;24.20;96.60;;;;;;5046522;28;20052;-48
2022/07/22 04:07:52;;;;;;;17.80;4.93;;;24.10;97.30;;;;;;5033970;28;20029;-50
2022/07/22 04:10:18;;;;;;;9.15;4.75;;;24.20;97.80;;;;;;5037920;28;20025;-51
2022/07/22 04:12:44;;;;;;;7.80;4.13;;;24.20;98.40;;;;;;5045673;28;20036;-50
2022/07/22 04:15:10;;;;;;;11.07;3.97;;;24.30;98.60;;;;;;5047913;28;20073;-50
2022/07/22 04:17:36;;;;;;;8.70;4.18;;;24.30;98.80;;;;;;5037942;28;20037;-51
2022/07/22 04:20:02;;;;;;;12.95;4.25;;;24.40;98.10;;;;;;5041303;28;20637;-48
2022/07/22 04:22:28;;;;;;;8.07;4.03;;;24.50;99.10;;;;;;5050510;28;20037;-49
2022/07/22 04:24:54;;;;;;;15.25;4.57;;;;;;;;;;5055963;28;20051;-49
2022/07/22 04:27:20;;;;;;;9.60;4.20;;;24.80;97.50;;;;;;5031633;28;20047;-49
2022/07/22 04:29:46;;;;;;;11.43;4.53;;;25.00;96.60;;;;;;5059239;28;20112;-48
2022/07/22 04:32:12;;;;;;;14.52;5.32;;;25.00;95.40;;;;;;5010783;28;20478;-48
2022/07/22 04:34:38;;;;;;;10.77;5.05;;;25.20;95.40;;;;;;5054840;28;20296;-51
2022/07/22 04:37:04;;;;;;;13.50;4.18;;;25.30;95.10;;;;;;5040750;28;20063;-50
2022/07/22 04:39:30;;;;;;;9.30;4.30;;;25.40;95.30;;;;;;5062703;28;20024;-48
2022/07/22 04:41:56;;;;;;;12.50;4.90;;;25.50;95.30;;;;;;5067796;28;20082;-48
2022/07/22 04:44:22;;;;;;;13.85;5.07;;;;;;;;;;5023291;28;20447;-49
2022/07/22 04:46:48;;;;;;;14.73;4.82;;;25.70;94.90;;;;;;5053601;28;20029;-50
2022/07/22 04:49:14;;;;;;;9.77;4.55;;;25.80;94.80;;;;;;5054263;28;20377;-51
2022/07/22 04:51:39;;;;;;;15.43;4.10;;;25.80;94.80;;;;;;5036287;28;20048;-51
2022/07/22 04:54:06;;;;;;;12.95;4.18;;;25.80;94.90;;;;;;5033323;28;20084;-50
2022/07/22 04:56:31;;;;;;;9.57;4.75;;;25.80;95.10;;;;;;5030959;28;20037;-51
2022/07/22 04:58:57;;;;;;;11.50;3.72;;;25.80;95.10;;;;;;5029824;28;20025;-47
2022/07/22 05:01:24;;;;;;;7.50;3.60;;;25.90;95.00;;;;;;5032163;28;20021;-50
2022/07/22 05:03:51;;;;;;;10.40;3.63;;;26.00;95.00;;;;;;5027806;28;20056;-50
2022/07/22 05:06:18;;;;;;;13.38;3.97;;;26.20;94.40;;;;;;5035769;28;20039;-50
2022/07/22 05:08:43;;;;;;;9.27;3.85;;;26.30;94.20;;;;;;5034356;28;20032;-49
2022/07/22 05:22:56;;;;;;;9.77;3.75;;;27.20;92.50;;;;;;5161292;27;20738;-48
2022/07/22 05:25:21;;;;;;;10.65;3.85;;;27.30;92.60;;;;;;5148919;27;20031;-49
2022/07/22 05:27:56;;;;;;;7.75;3.67;;;27.20;92.70;;;;;;5111746;27;20126;-50
2022/07/22 05:30:22;;;;;;;22.08;4.97;;;27.30;93.20;;;;;;5094136;27;20082;-47
2022/07/22 05:32:48;;;;;;;15.05;4.75;;;27.30;93.10;;;;;;5112423;27;20540;-49
2022/07/22 05:35:14;;;;;;;8.43;4.22;;;27.20;92.80;;;;;;5148626;27;20031;-49
2022/07/22 05:37:40;;;;;;;11.35;4.13;;;27.30;93.20;;;;;;5053118;27;20297;-49
2022/07/22 05:40:07;;;;;;;8.02;4.15;;;27.30;93.30;;;;;;5148271;27;20018;-48
2022/07/22 05:42:32;;;;;;;11.05;3.60;;;27.40;93.30;;;;;;5060953;27;20039;-47
2022/07/22 05:44:58;;;;;;;8.55;3.70;;;27.40;93.00;;;;;;5112316;27;20473;-49
2022/07/22 05:47:24;;;;;;;7.35;3.17;;;27.40;92.50;;;;;;5147669;27;20485;-47
2022/07/22 05:49:50;;;;;;;10.70;3.85;;;27.40;92.60;;;;;;5111215;27;20486;-49
2022/07/22 05:52:16;;;;;;;7.43;3.60;;;27.50;92.60;;;;;;5107437;27;20446;-49
2022/07/22 05:54:42;;;;;;;9.40;3.92;;;27.50;92.50;;;;;;5148971;27;20465;-49
2022/07/22 05:57:09;;;;;;;7.78;3.70;;;27.40;92.90;;;;;;5147891;27;20039;-49
2022/07/22 05:59:36;;;;;;;8.85;3.80;;;27.60;92.90;;;;;;5147452;27;20031;-47
2022/07/22 06:02:02;;;;;;;8.75;3.78;;;27.60;92.30;;;;;;5147906;27;20075;-47
2022/07/22 06:04:28;;;;;;;7.32;3.45;;;27.80;92.40;;;;;;5128657;27;20068;-49
2022/07/22 06:06:54;;;;;;;9.38;3.70;;;27.80;92.20;;;;;;5148005;27;20054;-50
2022/07/22 06:09:20;;;;;;;17.10;3.85;;;27.80;92.40;;;;;;5147320;27;20165;-50
2022/07/22 06:11:46;;;;;;;10.27;3.83;;;27.80;91.50;;;;;;5149302;27;20041;-47
2022/07/22 06:14:12;;;;;;;9.13;3.78;;;27.90;91.40;;;;;;5106299;27;20035;-50
2022/07/22 06:16:38;;;;;;;8.20;3.55;;;27.90;91.70;;;;;;5147553;27;20079;-49
2022/07/22 06:19:04;;;;;;;8.25;3.30;;;28.00;91.70;;;;;;5093913;27;20472;-50
2022/07/22 06:21:30;;;;;;;8.52;3.08;;;;;;;;;;5100914;28;20054;-50
2022/07/22 06:23:56;;;;;;;5.93;3.55;;;;;;;;;;5113649;28;20482;-50
2022/07/22 06:26:22;;;;;;;6.65;3.20;;;;;;;;;;5061422;28;20486;-48
2022/07/22 06:28:48;;;;;;;11.10;3.55;;;28.30;91.10;;;;;;5114228;28;20486;-49
2022/07/22 06:31:14;;;;;;;6.10;3.45;;;28.30;91.50;;;;;;5113360;28;20126;-48
2022/07/22 06:33:40;;;;;;;5.30;3.15;;;28.40;91.10;;;;;;5061100;28;20067;-50
2022/07/22 06:36:06;;;;;;;8.10;3.47;;;28.40;91.30;;;;;;5114228;28;20055;-50
2022/07/22 06:38:32;;;;;;;7.20;4.05;;;28.30;91.30;;;;;;5060448;28;20047;-49
2022/07/22 06:40:58;;;;;;;10.68;3.92;;;28.30;91.50;;;;;;5094760;28;20040;-49
2022/07/22 06:43:24;;;;;;;4.82;3.20;;;28.50;91.60;;;;;;5113825;28;20433;-49
2022/07/22 06:45:50;;;;;;;7.63;3.85;;;28.50;91.30;;;;;;5060807;28;20039;-50
2022/07/22 06:48:16;;;;;;;12.45;3.88;;;28.60;99.90;;;;;;5112972;28;20027;-48
2022/07/22 06:50:42;;;;;;;7.82;3.45;;;28.60;91.60;;;;;;5113051;28;20103;-48
2022/07/22 06:53:07;;;;;;;8.73;3.40;;;28.70;91.60;;;;;;5113515;28;20105;-47
2022/07/22 06:55:34;;;;;;;11.30;3.20;;;28.90;91.50;;;;;;5060905;28;20137;-48
2022/07/22 06:58:00;;;;;;;7.70;3.97;;;;;;;;;;5060149;28;20461;-48
2022/07/22 07:00:26;;;;;;;9.88;3.63;;;29.30;91.20;;;;;;5049833;28;20040;-49
2022/07/22 07:02:52;;;;;;;12.65;4.63;;;29.30;91.00;;;;;;5028427;28;20035;-51
2022/07/22 07:05:18;;;;;;;7.25;3.30;;;;;;;;;;5076663;28;20528;-48
2022/07/22 07:07:44;;;;;;;10.65;3.90;;;;;;;;;;5059337;28;20032;-49
2022/07/22 07:10:12;;;;;;;10.75;3.28;;;29.50;94.70;;;;;;5094431;28;20036;-49
2022/07/22 07:12:39;;;;;;;7.55;3.40;;;;;;;;;;5112511;28;20039;-48
2022/07/22 07:15:06;;;;;;;6.35;3.55;;;29.80;92.20;;;;;;5113698;28;20079;-50
2022/07/22 07:17:31;;;;;;;7.35;3.50;;;29.60;90.00;;;;;;5042855;28;20039;-47
2022/07/22 07:19:57;;;;;;;9.57;3.63;;;29.80;92.80;;;;;;5093231;28;20076;-48
2022/07/22 07:22:23;;;;;;;20.45;3.63;;;;;;;;;;5112277;28;20047;-48
2022/07/22 07:24:50;;;;;;;11.57;3.60;;;;;;;;;;5061371;28;20039;-47
2022/07/22 07:27:16;;;;;;;9.85;3.60;;;;;;;;;;5112738;28;20526;-49
2022/07/22 07:29:42;;;;;;;7.32;4.13;;;;;;;;;;5113133;28;20024;-47
2022/07/22 07:32:09;;;;;;;9.15;3.55;;;;;;;;;;5112284;28;20035;-50
2022/07/22 07:34:35;;;;;;;9.93;3.50;;;;;;;;;;5059199;28;20042;-48
2022/07/22 07:37:01;;;;;;;11.70;3.83;;;;;;;;;;5024642;28;20035;-48
2022/07/22 07:39:27;;;;;;;9.45;3.53;;;30.60;99.90;;;;;;5078390;28;20066;-48
2022/07/22 07:41:53;;;;;;;19.65;3.55;;;30.70;91.10;;;;;;5059740;28;20035;-48
2022/07/22 07:44:19;;;;;;;13.98;3.95;;;30.70;90.30;;;;;;5076995;28;20027;-47
2022/07/22 07:46:45;;;;;;;12.00;3.92;;;;;;;;;;5045060;28;20028;-50
2022/07/22 07:49:11;;;;;;;8.88;3.22;;;30.90;97.40;;;;;;5112057;28;20053;-48
2022/07/22 07:51:36;;;;;;;9.20;3.97;;;30.70;97.20;;;;;;5112275;28;20047;-47
2022/07/22 07:54:03;;;;;;;8.57;4.55;;;30.90;89.40;;;;;;5112601;28;20497;-50
2022/07/22 07:56:29;;;;;;;13.30;4.47;;;31.00;89.20;;;;;;5111720;28;20031;-48
2022/07/22 07:58:54;;;;;;;10.07;4.22;;;31.10;88.80;;;;;;5111767;28;20520;-48
2022/07/22 08:01:20;;;;;;;5.35;3.05;;;31.30;88.20;;;;;;5092898;28;20040;-50
2022/07/22 08:03:46;;;;;;;11.88;4.32;;;31.00;88.00;;;;;;5112492;28;20031;-50
2022/07/22 08:06:12;;;;;;;12.20;4.07;;;30.90;88.00;;;;;;5111991;28;20360;-48
2022/07/22 08:08:37;;;;;;;9.23;3.47;;;31.10;88.20;;;;;;5059189;28;20035;-47
2022/07/22 08:11:03;;;;;;;11.45;3.88;;;31.20;88.30;;;;;;5017690;28;20078;-47
2022/07/22 08:13:29;;;;;;;9.15;4.15;;;;;;;;;;5048776;28;20486;-50
2022/07/22 08:15:55;;;;;;;13.90;3.85;;;31.40;99.90;;;;;;5111804;28;20518;-49
2022/07/22 08:18:21;;;;;;;8.43;3.40;;;31.50;88.90;;;;;;5111554;28;20122;-50
2022/07/22 08:20:47;;;;;;;7.97;3.58;;;31.50;88.00;;;;;;5107051;28;20054;-47
2022/07/22 08:23:13;;;;;;;16.65;5.80;;;31.60;88.10;;;;;;5090262;28;20470;-50
2022/07/22 08:25:39;;;;;;;14.57;3.80;;;31.70;88.80;;;;;;5077805;28;20540;-48
2022/07/22 08:28:05;;;;;;;9.90;3.85;;;31.90;88.20;;;;;;5093279;28;20038;-49
2022/07/22 08:30:31;;;;;;;9.48;3.35;;;31.80;87.80;;;;;;5111754;28;20039;-49
2022/07/22 08:32:57;;;;;;;7.95;3.50;;;;;;;;;;5056433;28;20054;-51
2022/07/22 08:35:23;;;;;;;10.82;3.65;;;32.20;88.50;;;;;;5076069;28;20036;-49
2022/07/22 08:37:49;;;;;;;7.90;4.10;;;32.20;87.90;;;;;;5111114;28;20592;-47
2022/07/22 08:40:17;;;;;;;5.95;3.53;;;32.40;87.50;;;;;;5112344;28;20036;-50
2022/07/22 08:42:44;;;;;;;7.90;3.47;;;32.60;86.50;;;;;;5110853;28;20569;-48
2022/07/22 08:45:11;;;;;;;6.15;3.08;;;32.60;86.50;;;;;;5111513;28;20076;-49
2022/07/22 08:47:37;;;;;;;9.30;3.55;;;32.70;86.40;;;;;;5091538;28;20037;-48
2022/07/22 08:50:03;;;;;;;8.45;3.70;;;32.80;85.90;;;;;;5111459;28;20061;-47
2022/07/22 08:52:29;;;;;;;8.73;3.25;;;32.70;84.80;;;;;;5058609;28;20502;-48
2022/07/22 08:54:55;;;;;;;7.18;3.08;;;32.80;85.70;;;;;;5058509;28;20033;-50
2022/07/22 08:57:22;;;;;;;9.13;3.75;;;33.20;94.90;;;;;;5064105;28;20037;-48
2022/07/22 08:59:51;;;;;;;15.90;3.25;;;;;;;;;;5057244;28;20041;-47
2022/07/22 09:02:17;;;;;;;7.25;3.00;;;33.30;84.20;;;;;;5064547;28;20112;-50
2022/07/22 09:05:04;;;;;;;13.93;3.53;;;;;;;;;;5060655;28;20046;-48
2022/07/22 09:07:33;;;;;;;8.18;3.22;;;33.40;97.70;;;;;;5063301;28;20055;-50
2022/07/22 09:09:59;;;;;;;4.97;3.47;;;33.30;83.70;;;;;;5059623;28;20078;-50
2022/07/22 09:12:27;;;;;;;6.90;3.53;;;33.30;84.60;;;;;;5064041;28;20048;-49
2022/07/22 09:14:55;;;;;;;6.38;3.30;;;33.40;83.60;;;;;;5061585;28;20024;-48
2022/07/22 09:17:37;;;;;;;4.00;3.28;;;33.40;83.60;;;;;;5062561;28;20510;-50
2022/07/22 09:20:16;;;;;;;7.50;3.05;;;;;;;;;;5057109;28;20036;-49
2022/07/22 09:22:46;;;;;;;11.02;3.60;;;34.10;88.40;;;;;;5060671;28;20060;-48
2022/07/22 09:25:21;;;;;;;9.18;3.33;;;;;;;;;;5065100;28;20040;-49
2022/07/22 09:27:49;;;;;;;12.30;3.25;;;34.40;80.90;;;;;;5064137;28;20033;-49
2022/07/22 09:30:16;;;;;;;11.70;4.25;;;;;;;;;;5063158;28;20096;-50
2022/07/22 09:32:43;;;;;;;6.00;3.75;;;34.50;81.60;;;;;;5092361;28;20032;-48
2022/07/22 09:35:10;;;;;;;7.13;3.30;;;;;;;;;;5104929;28;20561;-48
2022/07/22 09:37:38;;;;;;;8.27;3.78;;;34.80;84.80;;;;;;5106061;28;20059;-50
2022/07/22 09:40:25;;;;;;;8.85;3.67;;;34.90;89.90;;;;;;5107372;28;20070;-48
2022/07/22 09:42:59;;;;;;;4.80;3.08;;;35.00;99.90;;;;;;5027149;28;20709;-48
2022/07/22 09:45:30;;;;;;;6.05;2.97;;;34.80;79.10;;;;;;5010379;28;20048;-49
2022/07/22 09:47:57;;;;;;;7.10;3.13;;;34.70;79.00;;;;;;5031857;28;20045;-49
2022/07/22 09:50:28;;;;;;;6.55;3.17;;;35.00;80.30;;;;;;5028152;28;20079;-48
2022/07/22 09:52:55;;;;;;;9.15;3.40;;;;;;;;;;5031628;28;20173;-50
2022/07/22 09:55:23;;;;;;;7.07;3.10;;;35.50;79.20;;;;;;5029326;28;20520;-49
2022/07/22 09:57:50;;;;;;;9.32;3.60;;;35.70;91.10;;;;;;5035500;28;20042;-49
2022/07/22 10:00:18;;;;;;;5.28;3.47;;;;;;;;;;5033760;28;20034;-48
2022/07/22 10:02:51;;;;;;;8.50;3.22;;;;;;;;;;5031637;28;20436;-49
2022/07/22 10:05:20;;;;;;;7.65;3.55;;;;;;;;;;5031785;28;20040;-47
2022/07/22 10:07:47;;;;;;;7.10;3.08;;;36.00;99.90;;;;;;5030093;28;20038;-47
2022/07/22 10:10:15;;;;;;;7.05;3.03;;;;;;;;;;5000874;28;20125;-49
2022/07/22 10:12:42;;;;;;;6.25;3.50;;;;;;;;;;5048096;28;20041;-48
2022/07/22 10:15:09;;;;;;;4.78;3.30;;;36.80;99.90;;;;;;5002727;28;20040;-50
2022/07/22 10:17:42;;;;;;;7.88;2.92;;;;;;;;;;5021643;28;20049;-51
2022/07/22 10:20:09;;;;;;;6.28;2.70;;;;;;;;;;5078953;28;20036;-49
2022/07/22 10:22:41;;;;;;;4.95;2.75;;;;;;;;;;5088166;28;20096;-49
2022/07/22 10:25:08;;;;;;;10.27;3.80;;;;;;;;;;5113390;28;20474;-47
2022/07/22 10:27:54;;;;;;;8.60;3.30;;;;;;;;;;5112683;28;20163;-49
2022/07/22 10:30:23;;;;;;;5.68;2.97;;;;;;;;;;5076645;28;20049;-47
2022/07/22 10:33:02;;;;;;;5.82;2.90;;;;;;;;;;5060543;28;20047;-49
2022/07/22 10:35:28;;;;;;;8.23;3.13;;;;;;;;;;5112307;28;20096;-49
2022/07/22 10:37:56;;;;;;;6.05;2.95;;;;;;;;;;5060582;28;20059;-49
2022/07/22 10:40:28;;;;;;;9.00;3.33;;;;;;;;;;5061331;28;20035;-47
2022/07/22 10:43:04;;;;;;;14.05;3.50;;;38.00;98.50;;;;;;5112456;28;20083;-50
2022/07/22 10:45:45;;;;;;;4.10;2.95;;;38.00;95.50;;;;;;5112682;28;20378;-50
2022/07/22 10:48:37;;;;;;;8.60;3.10;;;37.80;94.60;;;;;;5108415;28;20390;-48
2022/07/22 10:51:10;;;;;;;10.65;3.53;;;38.00;95.30;;;;;;5098818;28;20036;-50
2022/07/22 10:53:44;;;;;;;7.95;3.25;;;;;;;;;;5057358;28;20044;-50
2022/07/22 10:56:35;;;;;;;5.60;2.97;;;38.40;72.50;;;;;;5112604;28;20040;-49
2022/07/22 10:59:19;;;;;;;5.32;2.72;;;38.50;72.60;;;;;;5107375;28;20036;-48
2022/07/22 11:01:51;;;;;;;6.68;3.22;;;38.70;71.50;;;;;;5111271;28;20496;-49
2022/07/22 11:04:23;;;;;;;9.48;3.22;;;38.60;71.80;;;;;;5110697;28;20055;-47
2022/07/22 11:06:51;;;;;;;6.90;2.90;;;;;;;;;;5093126;28;20035;-48
2022/07/22 11:09:19;;;;;;;5.75;3.03;;;39.30;71.40;;;;;;5112035;28;20027;-48
2022/07/22 11:11:51;;;;;;;6.40;3.50;;;39.30;71.40;;;;;;5111814;28;20110;-49
2022/07/22 11:14:26;;;;;;;4.10;2.50;;;39.20;69.60;;;;;;5111844;28;20024;-50
2022/07/22 11:16:53;;;;;;;6.25;3.20;;;;;;;;;;5112196;28;20034;-48
2022/07/22 11:19:24;;;;;;;7.95;3.13;;;39.70;70.50;;;;;;5111140;28;20371;-49
2022/07/22 11:21:56;;;;;;;12.90;3.22;;;39.70;70.00;;;;;;5112483;28;20035;-48
2022/07/22 11:24:23;;;;;;;8.73;3.30;;;39.70;69.80;;;;;;5109899;28;20099;-47
2022/07/22 11:26:51;;;;;;;12.70;3.28;;;39.60;70.10;;;;;;5093786;28;20027;-49
2022/07/22 11:29:29;;;;;;;9.10;3.05;;;39.50;69.30;;;;;;5086497;28;20042;-49
2022/07/22 11:31:57;;;;;;;6.68;2.75;;;39.40;68.90;;;;;;5108808;28;20115;-48
2022/07/22 11:34:23;;;;;;;5.70;2.95;;;39.30;69.30;;;;;;5111275;28;20085;-50
2022/07/22 11:36:50;;;;;;;7.88;3.20;;;39.30;68.00;;;;;;5073548;28;20122;-49
2022/07/22 11:39:22;;;;;;;6.07;2.65;;;39.60;68.80;;;;;;5112233;28;20055;-47
2022/07/22 11:41:48;;;;;;;15.43;3.40;;;39.70;69.30;;;;;;5056640;28;20081;-50
2022/07/22 11:44:19;;;;;;;7.80;3.40;;;39.60;68.00;;;;;;5112553;28;20019;-51
2022/07/22 11:46:45;;;;;;;19.23;3.83;;;39.80;71.00;;;;;;5112671;28;20027;-47
2022/07/22 11:49:18;;;;;;;4.55;3.08;;;40.10;71.10;;;;;;5043994;28;20043;-48
2022/07/22 11:51:43;;;;;;;9.27;3.35;;;40.30;69.20;;;;;;5082895;28;20093;-47
2022/07/22 11:54:10;;;;;;;10.07;3.13;;;40.30;69.00;;;;;;5053143;28;20039;-50
2022/07/22 11:56:37;;;;;;;8.60;2.97;;;40.20;68.20;;;;;;5110705;28;20031;-50
2022/07/22 11:59:07;;;;;;;6.85;3.33;;;40.00;67.50;;;;;;5111499;28;20027;-48
2022/07/22 12:01:36;;;;;;;9.10;2.80;;;40.30;67.70;;;;;;5077379;28;20406;-50
2022/07/22 12:04:11;;;;;;;7.78;2.60;;;40.10;67.70;;;;;;5110930;28;20102;-47
2022/07/22 12:06:39;;;;;;;5.03;2.70;;;39.30;67.00;;;;;;5076441;28;20629;-49
2022/07/22 12:09:08;;;;;;;7.88;3.00;;;39.10;67.50;;;;;;5019996;28;20094;-49
2022/07/22 12:11:36;;;;;;;7.38;2.53;;;39.00;68.20;;;;;;5049861;28;20048;-48
2022/07/22 12:14:10;;;;;;;6.25;3.25;;;39.60;68.60;;;;;;5048118;28;20076;-49
2022/07/22 12:16:37;;;;;;;4.38;2.80;;;39.60;67.10;;;;;;5051011;28;20037;-50
2022/07/22 12:19:04;;;;;;;6.90;3.08;;;39.90;66.90;;;;;;5049802;28;20045;-51
2022/07/22 12:21:33;;;;;;;4.10;2.60;;;39.30;66.60;;;;;;5058650;28;20178;-50
2022/07/22 12:24:10;;;;;;;9.52;3.58;;;40.00;68.40;;;;;;5051556;28;20476;-49
2022/07/22 12:26:40;;;;;;;15.05;9.70;;;40.40;69.10;;;;;;5067674;28;20501;-50
2022/07/22 12:29:22;;;;;;;8.25;2.85;;;40.40;67.50;;;;;;5067519;28;20210;-50
2022/07/22 12:31:53;;;;;;;5.20;2.78;;;40.70;66.30;;;;;;5064297;28;20047;-48
2022/07/22 12:34:38;;;;;;;4.88;2.72;;;40.30;66.70;;;;;;5067642;28;20040;-47
2022/07/22 12:37:24;;;;;;;6.97;2.70;;;40.40;67.00;;;;;;5061867;28;20028;-49
2022/07/22 12:39:54;;;;;;;8.82;3.15;;;40.60;68.20;;;;;;5083733;28;20412;-50
2022/07/22 12:42:20;;;;;;;6.45;2.85;;;40.80;67.40;;;;;;5110331;28;20102;-48
2022/07/22 12:45:01;;;;;;;3.40;2.67;;;40.60;66.50;;;;;;5047082;28;20125;-51
2022/07/22 12:47:46;;;;;;;6.70;2.67;;;40.10;66.30;;;;;;5047327;28;20041;-48
2022/07/22 12:50:24;;;;;;;12.13;3.35;;;40.30;66.80;;;;;;5046734;28;20025;-49
2022/07/22 12:52:52;;;;;;;6.47;3.00;;;40.80;67.40;;;;;;5042281;28;20111;-48
2022/07/22 12:55:18;;;;;;;5.95;2.78;;;40.80;68.10;;;;;;5013346;28;20119;-52
2022/07/22 12:57:44;;;;;;;9.75;2.78;;;41.00;66.60;;;;;;5024777;28;20036;-47
2022/07/22 13:00:15;;;;;;;5.38;3.10;;;40.80;67.00;;;;;;5046092;28;20039;-50
2022/07/22 13:02:41;;;;;;;7.47;3.78;;;41.10;67.50;;;;;;5028754;28;20036;-48
2022/07/22 13:05:07;;;;;;;10.20;3.40;;;41.10;66.70;;;;;;5011148;28;20029;-49
2022/07/22 13:07:33;;;;;;;7.72;2.70;;;41.20;67.20;;;;;;4997742;28;20115;-47
2022/07/22 13:09:58;;;;;;;8.23;2.80;;;41.50;67.70;;;;;;5015030;28;20444;-48
2022/07/22 13:12:24;;;;;;;7.00;3.15;;;41.40;66.10;;;;;;5045508;28;20051;-50